📊 Raw Sensor Data

Showing records 47001 to 47025 of 85,079 total

ID Distance (ft) Battery V Battery A Int Temp (°F) Int Humid (%) Ext Temp (°F) Solar V RSSI SNR Time Stamp
38091 -- 4.11 5 82 44 75 5.10 -95 7 04/17/2025 05:45 PM
38090 -- 3.90 5 82 43 76 5.10 -96 6 04/17/2025 05:31 PM
38089 -- 3.90 0 81 43 72 5.10 -97 6 04/17/2025 05:15 PM
38088 -- 3.93 5 83 42 74 5.10 -90 8 04/17/2025 05:00 PM
38087 -- 3.90 0 83 40 75 5.10 -101 3 04/17/2025 04:45 PM
38086 -- 3.90 5 82 40 78 5.10 -92 8 04/17/2025 04:30 PM
38085 -- 3.90 0 78 41 71 5.10 -95 5 04/17/2025 04:15 PM
38084 -- 3.90 0 74 44 69 5.10 -97 5 04/17/2025 04:00 PM
38083 -- 3.90 5 80 38 75 5.10 -99 6 04/17/2025 03:30 PM
38082 -- 3.93 5 78 39 76 5.10 -100 5 04/17/2025 03:15 PM
38081 -- 3.96 5 72 41 67 5.10 -91 8 04/17/2025 03:00 PM
38080 -- 3.90 0 71 41 68 5.10 -90 7 04/17/2025 02:45 PM
38079 -- 3.90 5 69 41 64 5.10 -95 7 04/17/2025 02:30 PM
38078 -- 3.90 5 69 42 63 5.10 -97 7 04/17/2025 02:15 PM
38077 -- 3.92 5 68 43 62 5.10 -90 7 04/17/2025 01:15 PM
38076 -- 3.94 5 68 42 62 5.10 -96 7 04/17/2025 01:00 PM
38075 -- 3.90 0 70 42 61 5.10 -93 8 04/17/2025 12:45 PM
38074 -- 3.90 6 71 38 65 5.10 -89 8 04/17/2025 12:00 PM
38073 -- 4.04 8 67 39 66 5.10 -98 5 04/17/2025 11:46 AM
38072 -- 3.90 7 64 40 63 5.10 -93 6 04/17/2025 11:30 AM
38071 -- 3.90 9 62 41 58 5.10 -94 7 04/17/2025 11:15 AM
38070 -- 3.90 0 62 40 58 5.10 -94 6 04/17/2025 11:00 AM
38069 -- 3.90 10 63 40 61 5.10 -99 4 04/17/2025 10:46 AM
38068 -- 4.00 67 60 41 58 4.50 -93 6 04/17/2025 10:15 AM
38067 -- 4.00 56 60 41 57 4.50 -86 7 04/17/2025 10:00 AM